sensor_id;sensor_type;location;lat;lon;timestamp;P1;durP1;ratioP1;P2;durP2;ratioP2
317;SDS011;146;53.448;10.228;2023-06-19T00:00:19;8.40;;;7.70;;
317;SDS011;146;53.448;10.228;2023-06-19T00:02:48;9.13;;;8.43;;
317;SDS011;146;53.448;10.228;2023-06-19T00:05:15;7.80;;;7.30;;
317;SDS011;146;53.448;10.228;2023-06-19T00:07:45;8.50;;;8.00;;
317;SDS011;146;53.448;10.228;2023-06-19T00:10:16;8.43;;;7.87;;
317;SDS011;146;53.448;10.228;2023-06-19T00:12:46;8.87;;;8.20;;
317;SDS011;146;53.448;10.228;2023-06-19T00:15:16;9.73;;;9.03;;
317;SDS011;146;53.448;10.228;2023-06-19T00:17:43;9.40;;;8.70;;
317;SDS011;146;53.448;10.228;2023-06-19T00:20:10;9.13;;;8.43;;
317;SDS011;146;53.448;10.228;2023-06-19T00:22:38;9.87;;;9.07;;
317;SDS011;146;53.448;10.228;2023-06-19T00:25:22;9.10;;;8.40;;
317;SDS011;146;53.448;10.228;2023-06-19T00:27:48;9.70;;;9.00;;
317;SDS011;146;53.448;10.228;2023-06-19T00:30:34;8.57;;;7.97;;
317;SDS011;146;53.448;10.228;2023-06-19T00:33:00;9.00;;;8.40;;
317;SDS011;146;53.448;10.228;2023-06-19T00:35:34;8.80;;;8.20;;
317;SDS011;146;53.448;10.228;2023-06-19T00:38:01;9.10;;;8.50;;
317;SDS011;146;53.448;10.228;2023-06-19T00:40:38;9.80;;;9.10;;
317;SDS011;146;53.448;10.228;2023-06-19T00:43:14;9.07;;;8.43;;
317;SDS011;146;53.448;10.228;2023-06-19T00:45:44;9.17;;;8.50;;
317;SDS011;146;53.448;10.228;2023-06-19T00:48:10;8.70;;;8.10;;
317;SDS011;146;53.448;10.228;2023-06-19T00:50:44;8.07;;;7.57;;
317;SDS011;146;53.448;10.228;2023-06-19T00:53:18;9.60;;;9.00;;
317;SDS011;146;53.448;10.228;2023-06-19T00:55:58;9.33;;;8.53;;
317;SDS011;146;53.448;10.228;2023-06-19T00:58:25;9.53;;;8.83;;
317;SDS011;146;53.448;10.228;2023-06-19T01:00:53;9.80;;;9.10;;
317;SDS011;146;53.448;10.228;2023-06-19T01:03:22;9.83;;;9.03;;
317;SDS011;146;53.448;10.228;2023-06-19T01:05:51;9.27;;;8.53;;
317;SDS011;146;53.448;10.228;2023-06-19T01:08:24;9.70;;;9.00;;
317;SDS011;146;53.448;10.228;2023-06-19T01:11:26;9.60;;;9.00;;
317;SDS011;146;53.448;10.228;2023-06-19T01:14:00;9.50;;;8.90;;
317;SDS011;146;53.448;10.228;2023-06-19T01:16:35;10.00;;;9.30;;
317;SDS011;146;53.448;10.228;2023-06-19T01:19:02;9.23;;;8.63;;
317;SDS011;146;53.448;10.228;2023-06-19T01:21:31;9.60;;;8.90;;
317;SDS011;146;53.448;10.228;2023-06-19T01:24:00;8.67;;;7.97;;
317;SDS011;146;53.448;10.228;2023-06-19T01:26:26;9.60;;;8.90;;
317;SDS011;146;53.448;10.228;2023-06-19T01:28:53;10.47;;;9.67;;
317;SDS011;146;53.448;10.228;2023-06-19T01:31:21;10.53;;;9.73;;
317;SDS011;146;53.448;10.228;2023-06-19T01:33:55;10.53;;;9.73;;
317;SDS011;146;53.448;10.228;2023-06-19T01:36:23;8.97;;;8.37;;
317;SDS011;146;53.448;10.228;2023-06-19T01:38:52;9.93;;;9.30;;
317;SDS011;146;53.448;10.228;2023-06-19T01:41:44;10.80;;;10.10;;
317;SDS011;146;53.448;10.228;2023-06-19T01:44:12;9.80;;;9.10;;
317;SDS011;146;53.448;10.228;2023-06-19T01:46:39;10.10;;;9.33;;
317;SDS011;146;53.448;10.228;2023-06-19T01:49:06;9.60;;;8.93;;
317;SDS011;146;53.448;10.228;2023-06-19T01:51:34;10.20;;;9.40;;
317;SDS011;146;53.448;10.228;2023-06-19T01:54:02;9.70;;;9.10;;
317;SDS011;146;53.448;10.228;2023-06-19T01:56:29;10.00;;;9.27;;
317;SDS011;146;53.448;10.228;2023-06-19T01:59:03;10.30;;;9.60;;
317;SDS011;146;53.448;10.228;2023-06-19T02:01:33;10.17;;;9.47;;
317;SDS011;146;53.448;10.228;2023-06-19T02:04:00;10.17;;;9.47;;
317;SDS011;146;53.448;10.228;2023-06-19T02:06:29;9.83;;;9.13;;
317;SDS011;146;53.448;10.228;2023-06-19T02:08:56;11.00;;;10.20;;
317;SDS011;146;53.448;10.228;2023-06-19T02:11:26;9.93;;;9.13;;
317;SDS011;146;53.448;10.228;2023-06-19T02:13:53;10.73;;;9.87;;
317;SDS011;146;53.448;10.228;2023-06-19T02:16:27;11.40;;;10.60;;
317;SDS011;146;53.448;10.228;2023-06-19T02:18:57;10.80;;;10.00;;
317;SDS011;146;53.448;10.228;2023-06-19T02:21:29;9.83;;;9.23;;
317;SDS011;146;53.448;10.228;2023-06-19T02:23:59;10.03;;;9.33;;
317;SDS011;146;53.448;10.228;2023-06-19T02:26:26;10.97;;;10.17;;
317;SDS011;146;53.448;10.228;2023-06-19T02:29:00;9.73;;;9.03;;
317;SDS011;146;53.448;10.228;2023-06-19T02:31:28;10.07;;;9.13;;
317;SDS011;146;53.448;10.228;2023-06-19T02:33:55;11.27;;;10.43;;
317;SDS011;146;53.448;10.228;2023-06-19T02:36:28;10.40;;;9.70;;
317;SDS011;146;53.448;10.228;2023-06-19T02:38:55;10.70;;;9.80;;
317;SDS011;146;53.448;10.228;2023-06-19T02:41:25;9.93;;;9.13;;
317;SDS011;146;53.448;10.228;2023-06-19T02:43:51;10.60;;;9.83;;
317;SDS011;146;53.448;10.228;2023-06-19T02:46:18;11.43;;;10.63;;
317;SDS011;146;53.448;10.228;2023-06-19T02:48:56;10.37;;;9.60;;
317;SDS011;146;53.448;10.228;2023-06-19T02:51:25;11.73;;;10.77;;
317;SDS011;146;53.448;10.228;2023-06-19T02:53:52;11.60;;;10.80;;
317;SDS011;146;53.448;10.228;2023-06-19T02:56:22;12.30;;;11.40;;
317;SDS011;146;53.448;10.228;2023-06-19T02:58:56;11.37;;;10.57;;
317;SDS011;146;53.448;10.228;2023-06-19T03:01:25;10.40;;;9.60;;
317;SDS011;146;53.448;10.228;2023-06-19T03:03:56;10.10;;;9.40;;
317;SDS011;146;53.448;10.228;2023-06-19T03:06:23;10.70;;;9.90;;
317;SDS011;146;53.448;10.228;2023-06-19T03:08:54;11.63;;;10.83;;
317;SDS011;146;53.448;10.228;2023-06-19T03:11:24;10.70;;;9.90;;
317;SDS011;146;53.448;10.228;2023-06-19T03:13:54;11.50;;;10.80;;
317;SDS011;146;53.448;10.228;2023-06-19T03:16:21;10.30;;;9.50;;
317;SDS011;146;53.448;10.228;2023-06-19T03:18:48;10.97;;;10.27;;
317;SDS011;146;53.448;10.228;2023-06-19T03:21:19;11.37;;;10.37;;
317;SDS011;146;53.448;10.228;2023-06-19T03:23:47;12.13;;;11.23;;
317;SDS011;146;53.448;10.228;2023-06-19T03:26:18;11.53;;;10.73;;
317;SDS011;146;53.448;10.228;2023-06-19T03:28:44;11.40;;;10.60;;
317;SDS011;146;53.448;10.228;2023-06-19T03:31:18;11.87;;;11.07;;
317;SDS011;146;53.448;10.228;2023-06-19T03:33:45;11.10;;;10.30;;
317;SDS011;146;53.448;10.228;2023-06-19T03:36:12;11.90;;;11.10;;
317;SDS011;146;53.448;10.228;2023-06-19T03:38:46;10.67;;;9.97;;
317;SDS011;146;53.448;10.228;2023-06-19T03:41:20;11.90;;;11.00;;
317;SDS011;146;53.448;10.228;2023-06-19T03:43:49;10.60;;;9.90;;
317;SDS011;146;53.448;10.228;2023-06-19T03:46:22;11.10;;;10.30;;
317;SDS011;146;53.448;10.228;2023-06-19T03:48:52;11.40;;;10.60;;
317;SDS011;146;53.448;10.228;2023-06-19T03:51:19;11.40;;;10.60;;
317;SDS011;146;53.448;10.228;2023-06-19T03:53:50;12.17;;;11.27;;
317;SDS011;146;53.448;10.228;2023-06-19T03:56:23;12.60;;;11.70;;
317;SDS011;146;53.448;10.228;2023-06-19T03:58:49;12.53;;;11.63;;
317;SDS011;146;53.448;10.228;2023-06-19T04:01:16;11.67;;;10.80;;
317;SDS011;146;53.448;10.228;2023-06-19T04:03:43;11.80;;;11.00;;
317;SDS011;146;53.448;10.228;2023-06-19T04:06:27;11.37;;;10.67;;
317;SDS011;146;53.448;10.228;2023-06-19T04:08:58;12.07;;;11.27;;
317;SDS011;146;53.448;10.228;2023-06-19T04:11:25;11.17;;;10.47;;
317;SDS011;146;53.448;10.228;2023-06-19T04:13:57;13.37;;;12.40;;
317;SDS011;146;53.448;10.228;2023-06-19T04:16:30;10.90;;;10.20;;
317;SDS011;146;53.448;10.228;2023-06-19T04:19:03;11.70;;;10.90;;
317;SDS011;146;53.448;10.228;2023-06-19T04:21:33;11.17;;;10.40;;
317;SDS011;146;53.448;10.228;2023-06-19T04:24:01;12.20;;;11.07;;
317;SDS011;146;53.448;10.228;2023-06-19T04:26:34;10.80;;;10.00;;
317;SDS011;146;53.448;10.228;2023-06-19T04:29:01;11.60;;;10.60;;
317;SDS011;146;53.448;10.228;2023-06-19T04:31:34;12.10;;;11.10;;
317;SDS011;146;53.448;10.228;2023-06-19T04:34:05;11.73;;;10.83;;
317;SDS011;146;53.448;10.228;2023-06-19T04:36:42;11.73;;;10.93;;
317;SDS011;146;53.448;10.228;2023-06-19T04:39:10;11.60;;;10.80;;
317;SDS011;146;53.448;10.228;2023-06-19T04:41:37;12.03;;;11.20;;
317;SDS011;146;53.448;10.228;2023-06-19T04:44:08;11.80;;;10.90;;
317;SDS011;146;53.448;10.228;2023-06-19T04:46:42;11.83;;;10.93;;
317;SDS011;146;53.448;10.228;2023-06-19T04:49:10;11.80;;;11.00;;
317;SDS011;146;53.448;10.228;2023-06-19T04:51:43;11.93;;;11.13;;
317;SDS011;146;53.448;10.228;2023-06-19T04:54:14;12.30;;;11.40;;
317;SDS011;146;53.448;10.228;2023-06-19T04:56:57;12.97;;;11.80;;
317;SDS011;146;53.448;10.228;2023-06-19T04:59:23;13.60;;;12.60;;
317;SDS011;146;53.448;10.228;2023-06-19T05:01:50;11.23;;;10.43;;
317;SDS011;146;53.448;10.228;2023-06-19T05:04:22;12.17;;;11.30;;
317;SDS011;146;53.448;10.228;2023-06-19T05:06:49;12.10;;;11.20;;
317;SDS011;146;53.448;10.228;2023-06-19T05:09:17;10.90;;;10.00;;
317;SDS011;146;53.448;10.228;2023-06-19T05:11:54;11.93;;;10.93;;
317;SDS011;146;53.448;10.228;2023-06-19T05:14:23;11.87;;;10.87;;
317;SDS011;146;53.448;10.228;2023-06-19T05:16:50;12.27;;;11.37;;
317;SDS011;146;53.448;10.228;2023-06-19T05:19:19;12.10;;;11.27;;
317;SDS011;146;53.448;10.228;2023-06-19T05:21:49;12.20;;;11.33;;
317;SDS011;146;53.448;10.228;2023-06-19T05:24:20;13.50;;;12.60;;
317;SDS011;146;53.448;10.228;2023-06-19T05:26:47;12.80;;;11.80;;
317;SDS011;146;53.448;10.228;2023-06-19T05:29:13;11.03;;;10.33;;
317;SDS011;146;53.448;10.228;2023-06-19T05:31:49;11.60;;;10.70;;
317;SDS011;146;53.448;10.228;2023-06-19T05:34:16;12.87;;;11.83;;
317;SDS011;146;53.448;10.228;2023-06-19T05:36:43;12.37;;;11.47;;
317;SDS011;146;53.448;10.228;2023-06-19T05:39:12;12.70;;;11.80;;
317;SDS011;146;53.448;10.228;2023-06-19T05:41:43;12.57;;;11.47;;
317;SDS011;146;53.448;10.228;2023-06-19T05:44:13;11.40;;;10.60;;
317;SDS011;146;53.448;10.228;2023-06-19T05:46:41;12.03;;;11.23;;
317;SDS011;146;53.448;10.228;2023-06-19T05:49:09;12.37;;;11.47;;
317;SDS011;146;53.448;10.228;2023-06-19T05:51:35;12.57;;;11.67;;
317;SDS011;146;53.448;10.228;2023-06-19T05:54:11;13.00;;;11.90;;
317;SDS011;146;53.448;10.228;2023-06-19T05:56:38;13.47;;;12.47;;
317;SDS011;146;53.448;10.228;2023-06-19T05:59:21;13.23;;;12.23;;
317;SDS011;146;53.448;10.228;2023-06-19T06:01:48;13.43;;;12.40;;
317;SDS011;146;53.448;10.228;2023-06-19T06:04:18;12.57;;;11.70;;
317;SDS011;146;53.448;10.228;2023-06-19T06:06:49;12.10;;;11.20;;
317;SDS011;146;53.448;10.228;2023-06-19T06:09:16;13.07;;;12.13;;
317;SDS011;146;53.448;10.228;2023-06-19T06:11:43;13.37;;;12.17;;
317;SDS011;146;53.448;10.228;2023-06-19T06:14:13;13.77;;;12.47;;
317;SDS011;146;53.448;10.228;2023-06-19T06:16:54;14.23;;;13.03;;
317;SDS011;146;53.448;10.228;2023-06-19T06:19:20;14.87;;;13.87;;
317;SDS011;146;53.448;10.228;2023-06-19T06:21:50;14.70;;;13.60;;
317;SDS011;146;53.448;10.228;2023-06-19T06:24:17;14.83;;;13.57;;
317;SDS011;146;53.448;10.228;2023-06-19T06:26:52;13.10;;;12.10;;
317;SDS011;146;53.448;10.228;2023-06-19T06:29:19;16.20;;;14.73;;
317;SDS011;146;53.448;10.228;2023-06-19T06:31:48;14.10;;;12.97;;
317;SDS011;146;53.448;10.228;2023-06-19T06:34:22;14.90;;;13.80;;
317;SDS011;146;53.448;10.228;2023-06-19T06:36:59;15.03;;;13.97;;
317;SDS011;146;53.448;10.228;2023-06-19T06:39:29;14.50;;;13.40;;
317;SDS011;146;53.448;10.228;2023-06-19T06:41:56;14.80;;;13.80;;
317;SDS011;146;53.448;10.228;2023-06-19T06:44:26;14.40;;;13.30;;
317;SDS011;146;53.448;10.228;2023-06-19T06:46:53;15.10;;;13.70;;
317;SDS011;146;53.448;10.228;2023-06-19T06:49:26;14.40;;;13.30;;
317;SDS011;146;53.448;10.228;2023-06-19T06:52:02;14.90;;;13.80;;
317;SDS011;146;53.448;10.228;2023-06-19T06:54:29;14.10;;;13.20;;
317;SDS011;146;53.448;10.228;2023-06-19T06:57:02;14.77;;;13.77;;
317;SDS011;146;53.448;10.228;2023-06-19T06:59:48;14.63;;;13.63;;
317;SDS011;146;53.448;10.228;2023-06-19T07:02:24;14.73;;;13.73;;
317;SDS011;146;53.448;10.228;2023-06-19T07:04:52;15.53;;;14.43;;
317;SDS011;146;53.448;10.228;2023-06-19T07:07:19;14.50;;;13.40;;
317;SDS011;146;53.448;10.228;2023-06-19T07:09:51;15.00;;;13.90;;
317;SDS011;146;53.448;10.228;2023-06-19T07:12:21;13.53;;;12.53;;
317;SDS011;146;53.448;10.228;2023-06-19T07:14:48;14.80;;;13.80;;
317;SDS011;146;53.448;10.228;2023-06-19T07:17:26;15.30;;;14.20;;
317;SDS011;146;53.448;10.228;2023-06-19T07:19:57;15.60;;;14.50;;
317;SDS011;146;53.448;10.228;2023-06-19T07:22:28;15.47;;;14.37;;
317;SDS011;146;53.448;10.228;2023-06-19T07:25:04;14.83;;;13.70;;
317;SDS011;146;53.448;10.228;2023-06-19T07:27:31;13.70;;;12.70;;
317;SDS011;146;53.448;10.228;2023-06-19T07:30:05;14.30;;;13.10;;
317;SDS011;146;53.448;10.228;2023-06-19T07:32:36;14.10;;;12.97;;
317;SDS011;146;53.448;10.228;2023-06-19T07:35:11;15.10;;;14.10;;
317;SDS011;146;53.448;10.228;2023-06-19T07:37:38;13.87;;;12.97;;
317;SDS011;146;53.448;10.228;2023-06-19T07:40:09;14.47;;;13.37;;
317;SDS011;146;53.448;10.228;2023-06-19T07:42:36;15.60;;;14.30;;
317;SDS011;146;53.448;10.228;2023-06-19T07:45:15;13.57;;;12.57;;
317;SDS011;146;53.448;10.228;2023-06-19T07:47:53;15.23;;;14.13;;
317;SDS011;146;53.448;10.228;2023-06-19T07:53:03;15.33;;;14.23;;
317;SDS011;146;53.448;10.228;2023-06-19T07:55:38;14.73;;;13.57;;
317;SDS011;146;53.448;10.228;2023-06-19T07:58:13;15.90;;;14.77;;
317;SDS011;146;53.448;10.228;2023-06-19T08:00:40;13.57;;;12.63;;
317;SDS011;146;53.448;10.228;2023-06-19T08:03:19;14.47;;;13.40;;
317;SDS011;146;53.448;10.228;2023-06-19T08:05:50;14.77;;;13.57;;
317;SDS011;146;53.448;10.228;2023-06-19T08:08:17;16.27;;;15.13;;
317;SDS011;146;53.448;10.228;2023-06-19T08:10:44;14.60;;;13.60;;
317;SDS011;146;53.448;10.228;2023-06-19T08:13:17;14.40;;;13.40;;
317;SDS011;146;53.448;10.228;2023-06-19T08:15:50;13.77;;;12.87;;
317;SDS011;146;53.448;10.228;2023-06-19T08:18:17;14.73;;;13.77;;
317;SDS011;146;53.448;10.228;2023-06-19T08:20:51;16.00;;;14.50;;
317;SDS011;146;53.448;10.228;2023-06-19T08:23:24;15.00;;;13.93;;
317;SDS011;146;53.448;10.228;2023-06-19T08:25:56;14.77;;;13.67;;
317;SDS011;146;53.448;10.228;2023-06-19T08:28:23;15.57;;;14.50;;
317;SDS011;146;53.448;10.228;2023-06-19T08:30:50;14.87;;;13.77;;
317;SDS011;146;53.448;10.228;2023-06-19T08:33:17;13.30;;;12.40;;
317;SDS011;146;53.448;10.228;2023-06-19T08:35:46;15.17;;;14.07;;
317;SDS011;146;53.448;10.228;2023-06-19T08:38:15;16.27;;;15.03;;
317;SDS011;146;53.448;10.228;2023-06-19T08:40:47;15.73;;;14.60;;
317;SDS011;146;53.448;10.228;2023-06-19T08:43:15;15.43;;;14.37;;
317;SDS011;146;53.448;10.228;2023-06-19T08:45:53;15.63;;;14.53;;
317;SDS011;146;53.448;10.228;2023-06-19T08:48:42;15.63;;;14.53;;
317;SDS011;146;53.448;10.228;2023-06-19T08:51:10;15.10;;;14.00;;
317;SDS011;146;53.448;10.228;2023-06-19T08:53:45;15.07;;;13.97;;
317;SDS011;146;53.448;10.228;2023-06-19T08:56:25;13.97;;;12.97;;
317;SDS011;146;53.448;10.228;2023-06-19T08:58:55;14.70;;;13.60;;
317;SDS011;146;53.448;10.228;2023-06-19T09:01:46;14.20;;;13.30;;
317;SDS011;146;53.448;10.228;2023-06-19T09:04:20;16.10;;;15.00;;
317;SDS011;146;53.448;10.228;2023-06-19T09:06:48;13.43;;;12.53;;
317;SDS011;146;53.448;10.228;2023-06-19T09:09:24;14.23;;;13.33;;
317;SDS011;146;53.448;10.228;2023-06-19T09:11:57;14.60;;;13.53;;
317;SDS011;146;53.448;10.228;2023-06-19T09:14:27;15.07;;;13.97;;
317;SDS011;146;53.448;10.228;2023-06-19T09:17:00;14.43;;;13.43;;
317;SDS011;146;53.448;10.228;2023-06-19T09:19:28;12.70;;;11.90;;
317;SDS011;146;53.448;10.228;2023-06-19T09:21:59;13.43;;;12.47;;
317;SDS011;146;53.448;10.228;2023-06-19T09:27:12;13.00;;;12.10;;
317;SDS011;146;53.448;10.228;2023-06-19T09:29:49;12.90;;;12.00;;
317;SDS011;146;53.448;10.228;2023-06-19T09:32:27;13.50;;;12.40;;
317;SDS011;146;53.448;10.228;2023-06-19T09:34:55;12.50;;;11.60;;
317;SDS011;146;53.448;10.228;2023-06-19T09:37:24;13.33;;;12.33;;
317;SDS011;146;53.448;10.228;2023-06-19T09:40:19;11.87;;;11.03;;
317;SDS011;146;53.448;10.228;2023-06-19T09:42:46;12.37;;;11.57;;
317;SDS011;146;53.448;10.228;2023-06-19T09:45:27;12.27;;;11.47;;
317;SDS011;146;53.448;10.228;2023-06-19T09:47:56;12.43;;;11.47;;
317;SDS011;146;53.448;10.228;2023-06-19T09:50:24;13.37;;;12.47;;
317;SDS011;146;53.448;10.228;2023-06-19T09:52:54;12.83;;;11.93;;
317;SDS011;146;53.448;10.228;2023-06-19T09:55:23;14.00;;;13.10;;
317;SDS011;146;53.448;10.228;2023-06-19T09:57:53;13.20;;;12.40;;
317;SDS011;146;53.448;10.228;2023-06-19T10:00:21;13.20;;;12.30;;
317;SDS011;146;53.448;10.228;2023-06-19T10:02:51;13.73;;;12.57;;
317;SDS011;146;53.448;10.228;2023-06-19T10:05:27;13.43;;;12.43;;
317;SDS011;146;53.448;10.228;2023-06-19T10:07:55;12.40;;;11.60;;
317;SDS011;146;53.448;10.228;2023-06-19T10:10:26;13.00;;;12.10;;
317;SDS011;146;53.448;10.228;2023-06-19T10:12:54;13.47;;;12.47;;
317;SDS011;146;53.448;10.228;2023-06-19T10:15:22;13.07;;;12.17;;
317;SDS011;146;53.448;10.228;2023-06-19T10:17:51;13.50;;;12.50;;
317;SDS011;146;53.448;10.228;2023-06-19T10:20:29;13.33;;;12.03;;
317;SDS011;146;53.448;10.228;2023-06-19T10:22:58;14.83;;;13.57;;
317;SDS011;146;53.448;10.228;2023-06-19T10:25:30;13.47;;;12.60;;
317;SDS011;146;53.448;10.228;2023-06-19T10:28:15;12.90;;;12.10;;
317;SDS011;146;53.448;10.228;2023-06-19T10:30:55;19.03;;;12.13;;
317;SDS011;146;53.448;10.228;2023-06-19T10:33:23;13.13;;;12.23;;
317;SDS011;146;53.448;10.228;2023-06-19T10:35:52;12.73;;;11.83;;
317;SDS011;146;53.448;10.228;2023-06-19T10:38:21;13.07;;;12.17;;
317;SDS011;146;53.448;10.228;2023-06-19T10:40:50;13.17;;;12.27;;
317;SDS011;146;53.448;10.228;2023-06-19T10:43:19;14.70;;;13.50;;
317;SDS011;146;53.448;10.228;2023-06-19T10:45:49;13.17;;;12.03;;
317;SDS011;146;53.448;10.228;2023-06-19T10:48:18;12.63;;;11.80;;
317;SDS011;146;53.448;10.228;2023-06-19T10:50:57;13.60;;;12.60;;
317;SDS011;146;53.448;10.228;2023-06-19T10:53:25;13.83;;;12.93;;
317;SDS011;146;53.448;10.228;2023-06-19T10:55:57;12.63;;;11.73;;
317;SDS011;146;53.448;10.228;2023-06-19T10:58:30;13.43;;;12.43;;
317;SDS011;146;53.448;10.228;2023-06-19T11:00:57;12.90;;;12.00;;
317;SDS011;146;53.448;10.228;2023-06-19T11:03:27;13.90;;;12.90;;
317;SDS011;146;53.448;10.228;2023-06-19T11:05:54;14.00;;;12.90;;
317;SDS011;146;53.448;10.228;2023-06-19T11:08:24;12.67;;;11.87;;
317;SDS011;146;53.448;10.228;2023-06-19T11:10:54;13.53;;;12.63;;
317;SDS011;146;53.448;10.228;2023-06-19T11:13:26;12.63;;;11.77;;
317;SDS011;146;53.448;10.228;2023-06-19T11:15:52;13.17;;;12.23;;
317;SDS011;146;53.448;10.228;2023-06-19T11:18:24;13.43;;;12.53;;
317;SDS011;146;53.448;10.228;2023-06-19T11:20:51;11.47;;;10.77;;
317;SDS011;146;53.448;10.228;2023-06-19T11:23:24;11.97;;;11.17;;
317;SDS011;146;53.448;10.228;2023-06-19T11:25:52;13.20;;;12.10;;
317;SDS011;146;53.448;10.228;2023-06-19T11:28:26;12.77;;;11.60;;
317;SDS011;146;53.448;10.228;2023-06-19T11:30:57;12.07;;;11.27;;
317;SDS011;146;53.448;10.228;2023-06-19T11:33:25;13.30;;;12.40;;
317;SDS011;146;53.448;10.228;2023-06-19T11:35:52;12.20;;;11.40;;
317;SDS011;146;53.448;10.228;2023-06-19T11:38:36;12.10;;;11.30;;
317;SDS011;146;53.448;10.228;2023-06-19T11:41:06;11.87;;;10.87;;
317;SDS011;146;53.448;10.228;2023-06-19T11:43:59;10.97;;;10.27;;
317;SDS011;146;53.448;10.228;2023-06-19T11:46:29;12.97;;;11.97;;
317;SDS011;146;53.448;10.228;2023-06-19T11:49:06;13.13;;;11.93;;
317;SDS011;146;53.448;10.228;2023-06-19T11:51:34;11.87;;;11.10;;
317;SDS011;146;53.448;10.228;2023-06-19T11:54:13;12.10;;;11.30;;
317;SDS011;146;53.448;10.228;2023-06-19T11:56:46;12.53;;;11.53;;
317;SDS011;146;53.448;10.228;2023-06-19T11:59:15;12.30;;;11.50;;
317;SDS011;146;53.448;10.228;2023-06-19T12:01:44;11.30;;;10.43;;
317;SDS011;146;53.448;10.228;2023-06-19T12:04:11;11.87;;;11.07;;
317;SDS011;146;53.448;10.228;2023-06-19T12:06:44;12.03;;;11.13;;
317;SDS011;146;53.448;10.228;2023-06-19T12:09:21;11.93;;;11.13;;
317;SDS011;146;53.448;10.228;2023-06-19T12:11:48;11.27;;;10.47;;
317;SDS011;146;53.448;10.228;2023-06-19T12:14:19;12.13;;;11.30;;
317;SDS011;146;53.448;10.228;2023-06-19T12:16:52;11.30;;;10.57;;
317;SDS011;146;53.448;10.228;2023-06-19T12:19:19;12.57;;;11.67;;
317;SDS011;146;53.448;10.228;2023-06-19T12:21:55;11.13;;;10.33;;
317;SDS011;146;53.448;10.228;2023-06-19T12:24:25;10.60;;;9.90;;
317;SDS011;146;53.448;10.228;2023-06-19T12:26:51;11.27;;;10.37;;
317;SDS011;146;53.448;10.228;2023-06-19T12:29:26;11.57;;;10.57;;
317;SDS011;146;53.448;10.228;2023-06-19T12:31:58;9.93;;;9.23;;
317;SDS011;146;53.448;10.228;2023-06-19T12:34:26;9.97;;;9.37;;
317;SDS011;146;53.448;10.228;2023-06-19T12:36:53;9.17;;;8.57;;
317;SDS011;146;53.448;10.228;2023-06-19T12:39:22;8.80;;;8.20;;
317;SDS011;146;53.448;10.228;2023-06-19T12:41:49;9.23;;;8.60;;
317;SDS011;146;53.448;10.228;2023-06-19T12:44:20;8.53;;;7.93;;
317;SDS011;146;53.448;10.228;2023-06-19T12:46:49;10.20;;;9.40;;
317;SDS011;146;53.448;10.228;2023-06-19T12:49:17;8.90;;;8.30;;
317;SDS011;146;53.448;10.228;2023-06-19T12:51:47;9.47;;;8.77;;
317;SDS011;146;53.448;10.228;2023-06-19T12:54:17;8.50;;;7.90;;
317;SDS011;146;53.448;10.228;2023-06-19T12:56:46;8.87;;;8.00;;
317;SDS011;146;53.448;10.228;2023-06-19T12:59:13;9.03;;;8.33;;
317;SDS011;146;53.448;10.228;2023-06-19T13:01:40;9.00;;;8.40;;
317;SDS011;146;53.448;10.228;2023-06-19T13:04:14;9.80;;;9.10;;
317;SDS011;146;53.448;10.228;2023-06-19T13:06:44;9.10;;;8.50;;
317;SDS011;146;53.448;10.228;2023-06-19T13:09:14;8.57;;;7.97;;
317;SDS011;146;53.448;10.228;2023-06-19T13:11:47;8.60;;;7.90;;
317;SDS011;146;53.448;10.228;2023-06-19T13:14:20;8.90;;;8.20;;
317;SDS011;146;53.448;10.228;2023-06-19T13:16:53;9.03;;;8.33;;
317;SDS011;146;53.448;10.228;2023-06-19T13:19:27;7.60;;;7.10;;
317;SDS011;146;53.448;10.228;2023-06-19T13:21:56;6.70;;;6.20;;
317;SDS011;146;53.448;10.228;2023-06-19T13:24:29;8.30;;;7.60;;
317;SDS011;146;53.448;10.228;2023-06-19T13:26:56;6.80;;;6.30;;
317;SDS011;146;53.448;10.228;2023-06-19T13:29:32;6.40;;;6.00;;
317;SDS011;146;53.448;10.228;2023-06-19T13:32:01;5.33;;;5.03;;
317;SDS011;146;53.448;10.228;2023-06-19T13:34:29;5.30;;;5.00;;
317;SDS011;146;53.448;10.228;2023-06-19T13:36:56;4.63;;;4.33;;
317;SDS011;146;53.448;10.228;2023-06-19T13:39:22;5.37;;;5.03;;
317;SDS011;146;53.448;10.228;2023-06-19T13:41:50;5.40;;;5.10;;
317;SDS011;146;53.448;10.228;2023-06-19T13:44:20;5.53;;;5.10;;
317;SDS011;146;53.448;10.228;2023-06-19T13:46:50;4.87;;;4.53;;
317;SDS011;146;53.448;10.228;2023-06-19T13:49:19;4.70;;;4.40;;
317;SDS011;146;53.448;10.228;2023-06-19T13:52:00;4.87;;;4.53;;
317;SDS011;146;53.448;10.228;2023-06-19T13:54:26;5.00;;;4.70;;
317;SDS011;146;53.448;10.228;2023-06-19T13:56:54;6.30;;;4.73;;
317;SDS011;146;53.448;10.228;2023-06-19T13:59:21;5.17;;;4.70;;
317;SDS011;146;53.448;10.228;2023-06-19T14:01:50;5.17;;;4.80;;
317;SDS011;146;53.448;10.228;2023-06-19T14:04:23;4.90;;;4.50;;
317;SDS011;146;53.448;10.228;2023-06-19T14:06:50;5.23;;;4.93;;
317;SDS011;146;53.448;10.228;2023-06-19T14:09:38;11.13;;;5.10;;
317;SDS011;146;53.448;10.228;2023-06-19T14:12:13;7.03;;;6.40;;
317;SDS011;146;53.448;10.228;2023-06-19T14:14:52;7.03;;;6.53;;
317;SDS011;146;53.448;10.228;2023-06-19T14:20:12;6.00;;;5.63;;
317;SDS011;146;53.448;10.228;2023-06-19T14:22:45;5.90;;;5.50;;
317;SDS011;146;53.448;10.228;2023-06-19T14:25:22;5.20;;;4.90;;
317;SDS011;146;53.448;10.228;2023-06-19T14:27:48;6.60;;;6.10;;
317;SDS011;146;53.448;10.228;2023-06-19T14:30:15;5.63;;;5.13;;
317;SDS011;146;53.448;10.228;2023-06-19T14:32:48;5.23;;;4.93;;
317;SDS011;146;53.448;10.228;2023-06-19T14:35:15;6.30;;;5.80;;
317;SDS011;146;53.448;10.228;2023-06-19T14:37:48;6.30;;;5.90;;
317;SDS011;146;53.448;10.228;2023-06-19T14:40:15;7.53;;;6.50;;
317;SDS011;146;53.448;10.228;2023-06-19T14:42:48;7.40;;;6.90;;
317;SDS011;146;53.448;10.228;2023-06-19T14:45:18;8.00;;;7.40;;
317;SDS011;146;53.448;10.228;2023-06-19T14:47:51;8.97;;;8.37;;
317;SDS011;146;53.448;10.228;2023-06-19T14:50:18;8.17;;;7.57;;
317;SDS011;146;53.448;10.228;2023-06-19T14:52:50;8.70;;;8.10;;
317;SDS011;146;53.448;10.228;2023-06-19T14:55:17;9.40;;;8.70;;
317;SDS011;146;53.448;10.228;2023-06-19T14:57:48;10.20;;;9.50;;
317;SDS011;146;53.448;10.228;2023-06-19T15:00:21;9.93;;;9.23;;
317;SDS011;146;53.448;10.228;2023-06-19T15:02:48;9.90;;;9.30;;
317;SDS011;146;53.448;10.228;2023-06-19T15:05:15;9.90;;;9.10;;
317;SDS011;146;53.448;10.228;2023-06-19T15:07:42;10.67;;;9.97;;
317;SDS011;146;53.448;10.228;2023-06-19T15:10:14;10.33;;;9.63;;
317;SDS011;146;53.448;10.228;2023-06-19T15:12:52;10.03;;;9.43;;
317;SDS011;146;53.448;10.228;2023-06-19T15:15:18;10.77;;;10.07;;
317;SDS011;146;53.448;10.228;2023-06-19T15:17:48;10.33;;;9.70;;
317;SDS011;146;53.448;10.228;2023-06-19T15:20:15;10.60;;;9.80;;
317;SDS011;146;53.448;10.228;2023-06-19T15:22:45;11.03;;;10.33;;
317;SDS011;146;53.448;10.228;2023-06-19T15:25:12;10.77;;;10.07;;
317;SDS011;146;53.448;10.228;2023-06-19T15:27:39;11.30;;;10.40;;
317;SDS011;146;53.448;10.228;2023-06-19T15:30:15;10.60;;;9.90;;
317;SDS011;146;53.448;10.228;2023-06-19T15:32:45;8.80;;;8.30;;
317;SDS011;146;53.448;10.228;2023-06-19T15:35:14;8.33;;;7.63;;
317;SDS011;146;53.448;10.228;2023-06-19T15:37:41;8.00;;;7.23;;
317;SDS011;146;53.448;10.228;2023-06-19T15:40:13;6.73;;;6.33;;